Time;durP1;ratioP1;P1;durP2;ratioP2;P2;SDS_P1;SDS_P2;PMS_P1;PMS_P2;Temp;Humidity;BMP_temperature;BMP_pressure;BME280_temperature;BME280_humidity;BME280_pressure;Samples;Min_cycle;Max_cycle;Signal;HPM_P1;HPM_P2
2023/04/30 00:01:57;;;;;;;17.05;4.15;;;10.00;1.00;;;;;;5024955;28;20053;-63
2023/04/30 00:04:22;;;;;;;11.48;4.32;;;10.00;1.00;;;;;;5030789;28;20132;-63
2023/04/30 00:06:48;;;;;;;11.98;3.80;;;10.50;1.00;;;;;;5029966;28;20045;-63
2023/04/30 00:09:14;;;;;;;13.45;4.30;;;9.90;54.80;;;;;;5029940;28;20041;-64
2023/04/30 00:11:39;;;;;;;15.80;4.57;;;9.90;99.90;;;;;;5024252;28;20056;-63
2023/04/30 00:14:05;;;;;;;16.20;4.60;;;9.90;99.90;;;;;;5011029;28;20042;-63
2023/04/30 00:16:31;;;;;;;13.20;5.07;;;9.90;99.90;;;;;;5010772;28;20041;-64
2023/04/30 00:18:56;;;;;;;14.57;4.90;;;10.00;99.90;;;;;;5018982;28;20516;-63
2023/04/30 00:21:22;;;;;;;12.18;4.53;;;10.00;1.00;;;;;;5020633;28;20049;-64
2023/04/30 00:23:47;;;;;;;14.18;5.07;;;10.00;1.00;;;;;;5028254;28;20051;-64
2023/04/30 00:26:14;;;;;;;20.85;5.60;;;10.00;1.00;;;;;;5009403;28;20081;-64
2023/04/30 00:28:39;;;;;;;13.82;5.10;;;10.00;16.10;;;;;;5010711;28;20523;-64
2023/04/30 00:31:08;;;;;;;12.23;5.55;;;10.00;72.20;;;;;;5010672;28;20050;-64
2023/04/30 00:33:33;;;;;;;13.45;5.28;;;10.00;99.90;;;;;;5015395;28;20411;-64
2023/04/30 00:35:59;;;;;;;14.27;5.13;;;10.00;99.90;;;;;;5011553;28;20042;-63
2023/04/30 00:38:25;;;;;;;13.63;4.45;;;10.00;99.90;;;;;;5016149;28;20375;-63
2023/04/30 00:40:52;;;;;;;17.42;4.55;;;9.90;99.90;;;;;;5010269;28;20077;-64
2023/04/30 00:43:17;;;;;;;25.48;5.28;;;10.00;99.90;;;;;;5021399;28;20103;-63
2023/04/30 00:45:43;;;;;;;18.38;4.47;;;10.00;99.90;;;;;;4995556;28;20785;-64
2023/04/30 00:48:08;;;;;;;15.55;4.95;;;10.00;96.70;;;;;;5024123;28;20042;-64
2023/04/30 00:50:35;;;;;;;13.57;4.68;;;9.90;59.50;;;;;;5009426;28;20074;-64
2023/04/30 00:53:01;;;;;;;16.77;4.28;;;9.90;18.20;;;;;;4998506;28;20080;-63
2023/04/30 00:55:26;;;;;;;9.68;4.15;;;9.90;1.00;;;;;;5028772;28;20469;-63
2023/04/30 00:57:53;;;;;;;10.27;3.80;;;9.70;1.00;;;;;;5027797;28;20491;-63
2023/04/30 01:00:18;;;;;;;10.20;4.20;;;9.60;99.90;;;;;;5010221;28;20046;-64
2023/04/30 01:02:44;;;;;;;15.95;4.70;;;9.50;99.90;;;;;;5011618;28;20037;-63
2023/04/30 01:05:10;;;;;;;16.00;5.40;;;9.40;99.90;;;;;;5028565;28;20076;-63
2023/04/30 01:07:37;;;;;;;13.93;5.20;;;9.40;99.90;;;;;;5026841;28;20045;-63
2023/04/30 01:10:04;;;;;;;14.68;5.53;;;9.40;99.90;;;;;;5008877;28;20053;-63
2023/04/30 01:12:54;;;;;;;9.05;4.88;;;9.40;1.00;;;;;;5017090;28;20041;-63
2023/04/30 01:15:46;;;;;;;16.00;4.70;;;9.50;1.00;;;;;;5009933;28;20042;-63
2023/04/30 01:18:17;;;;;;;18.75;5.05;;;9.40;1.00;;;;;;5014858;28;20438;-63
2023/04/30 01:21:01;;;;;;;10.15;4.25;;;9.40;1.00;;;;;;5029514;28;20087;-63
2023/04/30 01:24:05;;;;;;;15.43;4.47;;;9.30;1.00;;;;;;5028776;28;20045;-63
2023/04/30 01:26:50;;;;;;;10.68;4.70;;;9.30;1.00;;;;;;5016458;28;20065;-63
2023/04/30 01:29:17;;;;;;;18.70;6.53;;;9.20;19.80;;;;;;5013890;28;20515;-63
2023/04/30 01:31:43;;;;;;;17.55;5.72;;;9.20;81.70;;;;;;5013277;28;20504;-63
2023/04/30 01:34:09;;;;;;;16.80;5.15;;;9.20;99.90;;;;;;5026166;28;20041;-64
2023/04/30 01:37:15;;;;;;;15.52;5.43;;;9.20;99.90;;;;;;5021373;28;20034;-63
2023/04/30 01:39:58;;;;;;;13.30;4.90;;;9.20;99.90;;;;;;5007617;28;20084;-63
2023/04/30 01:42:52;;;;;;;8.88;4.45;;;9.10;99.90;;;;;;5013019;28;20081;-63
2023/04/30 01:45:42;;;;;;;21.17;5.63;;;9.20;1.00;;;;;;5011755;28;20061;-63
2023/04/30 01:48:26;;;;;;;18.80;5.95;;;9.10;1.00;;;;;;5013765;28;20046;-63
2023/04/30 01:51:13;;;;;;;11.70;4.95;;;9.10;1.00;;;;;;5013628;28;20060;-63
2023/04/30 01:53:41;;;;;;;10.85;5.30;;;9.10;1.00;;;;;;5013438;28;20050;-64
2023/04/30 01:56:17;;;;;;;15.18;5.53;;;9.10;36.10;;;;;;5013215;28;20042;-63
2023/04/30 01:58:44;;;;;;;7.60;4.47;;;9.10;92.10;;;;;;5015265;28;20495;-63
2023/04/30 02:01:26;;;;;;;14.23;5.82;;;9.20;99.90;;;;;;5012400;28;20453;-63
2023/04/30 02:03:51;;;;;;;13.18;5.18;;;9.10;99.90;;;;;;5025644;28;20045;-63
2023/04/30 02:06:17;;;;;;;12.75;5.25;;;9.10;99.90;;;;;;5017121;28;20038;-63
2023/04/30 02:08:42;;;;;;;20.67;6.00;;;9.10;99.90;;;;;;5021960;28;20096;-63
2023/04/30 02:11:08;;;;;;;14.65;5.78;;;9.10;99.90;;;;;;5025358;28;20041;-63
2023/04/30 02:13:33;;;;;;;12.85;6.05;;;9.10;99.90;;;;;;5020634;28;20041;-63
2023/04/30 02:15:59;;;;;;;12.95;6.25;;;9.10;99.90;;;;;;5033144;28;20037;-63
2023/04/30 02:18:24;;;;;;;21.13;6.18;;;9.10;99.90;;;;;;5027384;28;20033;-63
2023/04/30 02:20:50;;;;;;;12.68;5.85;;;9.10;99.90;;;;;;5021546;28;20095;-63
2023/04/30 02:23:15;;;;;;;12.18;6.85;;;9.20;99.90;;;;;;5012815;28;20084;-63
2023/04/30 02:25:41;;;;;;;13.32;6.45;;;9.10;99.90;;;;;;5025214;28;20041;-63
2023/04/30 02:28:06;;;;;;;15.10;7.30;;;9.00;99.90;;;;;;5020090;28;20049;-63
2023/04/30 02:30:32;;;;;;;14.65;6.25;;;9.00;99.90;;;;;;5018974;28;20053;-63
2023/04/30 02:32:57;;;;;;;21.92;6.85;;;9.00;99.90;;;;;;5028005;28;20071;-63
2023/04/30 02:35:23;;;;;;;15.43;6.80;;;8.90;99.90;;;;;;5021049;28;20042;-63
2023/04/30 02:37:49;;;;;;;12.95;5.82;;;8.80;99.90;;;;;;5024677;28;20045;-63
2023/04/30 02:40:14;;;;;;;12.23;5.53;;;8.80;99.90;;;;;;5029351;28;20408;-63
2023/04/30 02:42:40;;;;;;;11.35;5.88;;;8.70;99.90;;;;;;5019106;28;20045;-63
2023/04/30 02:45:06;;;;;;;15.55;6.53;;;8.60;99.90;;;;;;5012720;28;20458;-63
2023/04/30 02:47:31;;;;;;;10.00;5.95;;;8.60;99.90;;;;;;5012244;28;20484;-63
2023/04/30 02:49:57;;;;;;;11.10;6.20;;;8.60;99.90;;;;;;5026553;28;20065;-63
2023/04/30 02:52:22;;;;;;;12.57;6.22;;;8.60;99.90;;;;;;5013902;28;20052;-63
2023/04/30 02:54:48;;;;;;;17.83;6.88;;;8.60;99.90;;;;;;5031449;28;20135;-63
2023/04/30 02:57:14;;;;;;;15.77;6.05;;;8.70;99.90;;;;;;5028339;28;20172;-63
2023/04/30 02:59:44;;;;;;;11.55;6.28;;;8.60;99.90;;;;;;5014845;28;20526;-63
2023/04/30 03:02:10;;;;;;;8.30;5.55;;;8.60;99.90;;;;;;5020344;28;20129;-63
2023/04/30 03:04:35;;;;;;;15.77;6.57;;;8.60;99.90;;;;;;5012027;28;20085;-64
2023/04/30 03:07:02;;;;;;;13.82;6.60;;;8.60;99.90;;;;;;5017816;28;20137;-63
2023/04/30 03:09:30;;;;;;;21.75;7.07;;;8.60;99.90;;;;;;5029464;28;20143;-63
2023/04/30 03:11:55;;;;;;;13.45;7.47;;;8.60;99.90;;;;;;5020748;28;20407;-63
2023/04/30 03:14:21;;;;;;;15.98;7.38;;;8.70;99.90;;;;;;5030636;28;20034;-63
2023/04/30 03:16:46;;;;;;;14.20;6.38;;;8.70;99.90;;;;;;5030096;28;20040;-63
2023/04/30 03:19:12;;;;;;;19.90;6.57;;;8.80;99.90;;;;;;5031781;28;20068;-63
2023/04/30 03:21:37;;;;;;;24.05;6.70;;;8.80;99.90;;;;;;5027972;28;20083;-63
2023/04/30 03:24:04;;;;;;;17.10;6.32;;;8.80;99.90;;;;;;5029197;28;20048;-63
2023/04/30 03:26:29;;;;;;;19.50;7.00;;;8.80;99.90;;;;;;5027853;28;20053;-63
2023/04/30 03:28:55;;;;;;;17.95;6.78;;;8.80;99.90;;;;;;5011137;28;20455;-63
2023/04/30 03:31:20;;;;;;;15.77;5.88;;;8.80;99.90;;;;;;5005266;28;20046;-63
2023/04/30 03:33:46;;;;;;;15.65;6.18;;;8.90;99.90;;;;;;5031211;28;20033;-63
2023/04/30 03:36:11;;;;;;;14.88;5.80;;;8.90;99.90;;;;;;5027829;28;20038;-63
2023/04/30 03:38:37;;;;;;;18.05;5.80;;;8.80;99.90;;;;;;5023010;28;20427;-63
2023/04/30 03:41:03;;;;;;;15.35;5.97;;;8.80;99.90;;;;;;5014093;28;20488;-63
2023/04/30 03:43:28;;;;;;;12.05;5.57;;;8.80;99.90;;;;;;5017075;28;20574;-63
2023/04/30 03:45:54;;;;;;;17.75;6.22;;;8.80;99.90;;;;;;5022389;28;20045;-63
2023/04/30 03:48:20;;;;;;;15.32;6.72;;;8.80;99.90;;;;;;5031264;28;20389;-63
2023/04/30 03:50:46;;;;;;;16.20;5.65;;;8.80;99.90;;;;;;5022318;28;20050;-63
2023/04/30 03:53:11;;;;;;;12.52;6.10;;;8.70;99.90;;;;;;5025201;28;20377;-64
2023/04/30 03:55:37;;;;;;;12.30;5.75;;;8.70;99.90;;;;;;5010601;28;20041;-63
2023/04/30 03:58:03;;;;;;;15.93;6.22;;;8.80;99.90;;;;;;5024946;28;20442;-63
2023/04/30 04:00:28;;;;;;;15.13;6.65;;;8.80;99.90;;;;;;5022832;28;20088;-63
2023/04/30 04:02:56;;;;;;;15.02;6.57;;;8.80;99.90;;;;;;5009895;28;20049;-63
2023/04/30 04:05:21;;;;;;;31.48;8.05;;;8.80;99.90;;;;;;5017960;28;20044;-63
2023/04/30 04:07:47;;;;;;;17.40;6.85;;;8.70;99.90;;;;;;5030687;28;20438;-63
2023/04/30 04:10:13;;;;;;;23.77;6.95;;;8.70;99.90;;;;;;5025359;28;20163;-63
2023/04/30 04:12:39;;;;;;;14.38;7.13;;;8.70;99.90;;;;;;5009427;28;20061;-63
2023/04/30 04:15:05;;;;;;;14.43;6.60;;;8.70;99.90;;;;;;5010885;28;20067;-63
2023/04/30 04:17:30;;;;;;;16.63;5.90;;;8.70;99.90;;;;;;5010661;28;20053;-63
2023/04/30 04:19:56;;;;;;;10.43;5.95;;;8.80;99.90;;;;;;5019320;28;20045;-63
2023/04/30 04:22:21;;;;;;;13.48;5.95;;;8.80;99.90;;;;;;5017680;28;20045;-63
2023/04/30 04:24:47;;;;;;;15.05;6.95;;;8.60;99.90;;;;;;5027700;28;20670;-63
2023/04/30 04:27:12;;;;;;;16.08;6.72;;;8.60;99.90;;;;;;5010146;28;20189;-63
2023/04/30 04:29:38;;;;;;;17.00;8.80;;;8.50;99.90;;;;;;5013660;28;20708;-63
2023/04/30 04:32:04;;;;;;;14.07;7.20;;;8.50;99.90;;;;;;5009402;28;20077;-63
2023/04/30 04:34:31;;;;;;;13.38;6.80;;;8.60;99.90;;;;;;5011338;28;20073;-63
2023/04/30 04:36:57;;;;;;;13.32;7.18;;;8.50;99.90;;;;;;5009290;28;20050;-63
2023/04/30 04:39:23;;;;;;;15.73;6.50;;;8.40;99.90;;;;;;5019890;28;20095;-64
2023/04/30 04:41:48;;;;;;;18.05;7.03;;;8.30;99.90;;;;;;5027840;28;20041;-63
2023/04/30 04:44:14;;;;;;;13.45;6.88;;;8.20;99.90;;;;;;5029480;28;20099;-63
2023/04/30 04:46:43;;;;;;;20.05;6.68;;;8.20;99.90;;;;;;5011505;28;20033;-63
2023/04/30 04:49:09;;;;;;;18.13;6.88;;;8.30;99.90;;;;;;5018380;28;20484;-63
2023/04/30 04:51:34;;;;;;;18.20;6.95;;;8.20;99.90;;;;;;5016305;28;20041;-63
2023/04/30 04:54:00;;;;;;;16.95;7.88;;;8.30;99.90;;;;;;5013046;28;20041;-63
2023/04/30 04:56:26;;;;;;;16.25;7.40;;;8.40;99.90;;;;;;5021150;28;20096;-63
2023/04/30 04:58:51;;;;;;;12.98;5.10;;;8.30;99.90;;;;;;5010052;28;20038;-63
2023/04/30 05:01:17;;;;;;;14.80;5.93;;;8.30;99.90;;;;;;5014072;28;20073;-63
2023/04/30 05:03:42;;;;;;;30.60;6.68;;;8.40;99.90;;;;;;5023043;28;20061;-63
2023/04/30 05:06:08;;;;;;;21.50;7.38;;;8.40;99.90;;;;;;5030250;28;20299;-63
2023/04/30 05:08:34;;;;;;;14.85;6.93;;;8.40;99.90;;;;;;5011953;28;20527;-63
2023/04/30 05:10:59;;;;;;;16.02;6.00;;;8.40;99.90;;;;;;5012153;28;20060;-61
2023/04/30 05:13:25;;;;;;;18.92;8.35;;;8.50;99.90;;;;;;5014769;28;20042;-61
2023/04/30 05:15:52;;;;;;;24.63;7.90;;;8.60;99.90;;;;;;5010924;28;20038;-61
2023/04/30 05:18:17;;;;;;;21.85;7.13;;;8.50;99.90;;;;;;5010818;28;20038;-61
2023/04/30 05:20:43;;;;;;;16.67;7.68;;;8.50;99.90;;;;;;5025249;28;20136;-64
2023/04/30 05:23:08;;;;;;;15.65;6.80;;;8.60;99.90;;;;;;5022637;28;20102;-63
2023/04/30 05:25:37;;;;;;;17.52;5.93;;;8.70;99.90;;;;;;5017955;28;20057;-64
2023/04/30 05:28:03;;;;;;;13.13;5.70;;;8.70;99.90;;;;;;5021802;28;20049;-64
2023/04/30 05:30:29;;;;;;;20.95;6.88;;;8.70;99.90;;;;;;5024695;28;20042;-64
2023/04/30 05:32:55;;;;;;;24.45;7.18;;;8.90;99.90;;;;;;5009869;28;20042;-64
2023/04/30 05:35:21;;;;;;;12.02;6.70;;;8.90;99.90;;;;;;5018781;28;20128;-64
2023/04/30 05:37:47;;;;;;;18.08;7.85;;;9.00;99.90;;;;;;5010545;28;20144;-64
2023/04/30 05:40:14;;;;;;;13.25;7.22;;;9.10;99.90;;;;;;5025634;28;20651;-64
2023/04/30 05:42:42;;;;;;;12.23;7.68;;;9.20;99.90;;;;;;5016627;28;20042;-64
2023/04/30 05:45:08;;;;;;;18.48;8.65;;;9.30;99.90;;;;;;5009150;28;20080;-64
2023/04/30 05:47:34;;;;;;;15.50;7.10;;;9.30;99.90;;;;;;5022817;28;20046;-64
2023/04/30 05:49:59;;;;;;;14.13;6.68;;;9.50;99.90;;;;;;5009781;28;20172;-64
2023/04/30 05:52:25;;;;;;;15.32;8.57;;;9.60;99.90;;;;;;5011356;28;20049;-64
2023/04/30 05:54:51;;;;;;;12.07;6.97;;;9.50;99.90;;;;;;5020779;28;20037;-64
2023/04/30 05:57:16;;;;;;;13.50;7.15;;;9.70;99.90;;;;;;5021925;28;20044;-64
2023/04/30 05:59:42;;;;;;;16.30;7.10;;;9.70;99.90;;;;;;5014283;28;20045;-64
2023/04/30 06:02:08;;;;;;;13.73;6.32;;;9.80;99.90;;;;;;5016595;28;20064;-64
2023/04/30 06:04:33;;;;;;;14.77;7.65;;;9.80;99.90;;;;;;5026245;28;20120;-64
2023/04/30 06:06:59;;;;;;;13.02;7.30;;;9.90;99.90;;;;;;5032550;28;20064;-64
2023/04/30 06:09:25;;;;;;;17.33;7.18;;;10.00;99.90;;;;;;5022237;28;20050;-64
2023/04/30 06:11:50;;;;;;;15.05;7.25;;;10.00;99.90;;;;;;5014164;28;20368;-64
2023/04/30 06:14:17;;;;;;;14.68;7.25;;;10.10;99.90;;;;;;5030446;28;20036;-64
2023/04/30 06:16:45;;;;;;;13.88;6.57;;;10.20;99.90;;;;;;5016326;28;20121;-64
2023/04/30 06:19:11;;;;;;;18.33;7.47;;;10.30;99.90;;;;;;5023524;28;20492;-64
2023/04/30 06:21:37;;;;;;;13.73;5.68;;;10.30;99.90;;;;;;5016278;28;20041;-64
2023/04/30 06:24:03;;;;;;;12.05;5.70;;;10.40;99.90;;;;;;5016713;28;20571;-64
2023/04/30 06:26:29;;;;;;;11.50;5.45;;;10.50;99.90;;;;;;5012750;28;20061;-64
2023/04/30 06:28:55;;;;;;;12.35;5.40;;;10.50;99.90;;;;;;5021078;28;20053;-64
2023/04/30 06:31:21;;;;;;;12.77;5.00;;;10.50;99.90;;;;;;5017894;28;20096;-64
2023/04/30 06:33:47;;;;;;;14.75;5.07;;;11.10;99.90;;;;;;5014880;28;20036;-64
2023/04/30 06:36:12;;;;;;;14.07;6.80;;;10.50;99.90;;;;;;5019151;28;20087;-64
2023/04/30 06:38:38;;;;;;;14.65;5.05;;;10.60;99.90;;;;;;5030043;28;20299;-64
2023/04/30 06:41:04;;;;;;;17.88;5.25;;;10.70;99.90;;;;;;5015841;28;20119;-64
2023/04/30 06:43:30;;;;;;;11.82;5.13;;;10.90;99.90;;;;;;5026951;28;20033;-64
2023/04/30 06:45:55;;;;;;;12.30;5.05;;;10.90;99.90;;;;;;5011943;28;20142;-64
2023/04/30 06:48:21;;;;;;;11.82;4.97;;;10.90;99.90;;;;;;5022972;28;20052;-64
2023/04/30 06:50:47;;;;;;;18.65;5.28;;;11.00;99.90;;;;;;5019076;28;20042;-64
2023/04/30 06:53:13;;;;;;;11.35;4.63;;;11.70;99.90;;;;;;5015708;28;20559;-64
2023/04/30 06:55:41;;;;;;;11.15;3.95;;;11.30;99.90;;;;;;5012318;28;20088;-64
2023/04/30 06:58:06;;;;;;;8.10;4.47;;;11.30;99.90;;;;;;5026008;28;20036;-64
2023/04/30 07:00:33;;;;;;;12.77;4.55;;;11.40;99.90;;;;;;5030395;28;20045;-64
2023/04/30 07:03:01;;;;;;;11.32;5.18;;;11.50;99.90;;;;;;5009633;28;20136;-64
2023/04/30 07:05:27;;;;;;;11.20;4.95;;;11.60;99.90;;;;;;5015505;28;20053;-64
2023/04/30 07:07:53;;;;;;;14.50;4.90;;;11.60;99.90;;;;;;5026209;28;20037;-64
2023/04/30 07:10:18;;;;;;;14.20;5.00;;;11.70;99.90;;;;;;5021572;28;20695;-64
2023/04/30 07:12:44;;;;;;;13.13;5.03;;;11.70;99.90;;;;;;5026076;28;20042;-64
2023/04/30 07:15:10;;;;;;;14.70;5.00;;;11.90;99.90;;;;;;5011292;28;20034;-64
2023/04/30 07:17:36;;;;;;;10.38;4.47;;;12.10;99.90;;;;;;5019481;28;20045;-65
2023/04/30 07:20:03;;;;;;;13.45;5.15;;;12.60;99.90;;;;;;5013426;28;20665;-65
2023/04/30 07:22:30;;;;;;;11.32;4.22;;;12.70;99.90;;;;;;5026163;28;20041;-65
2023/04/30 07:24:55;;;;;;;11.55;3.78;;;13.00;99.90;;;;;;5017105;28;20392;-65
2023/04/30 07:27:21;;;;;;;11.60;3.70;;;13.30;99.90;;;;;;5017842;28;20061;-65
2023/04/30 07:29:47;;;;;;;13.98;4.15;;;13.30;1.00;;;;;;5011247;28;20133;-65
2023/04/30 07:32:13;;;;;;;11.05;3.72;;;13.50;99.90;;;;;;5015489;28;20046;-65
2023/04/30 07:34:39;;;;;;;10.98;3.92;;;13.70;1.00;;;;;;5028247;28;20045;-65
2023/04/30 07:37:05;;;;;;;15.00;4.53;;;13.50;99.90;;;;;;5011647;28;20034;-65
2023/04/30 07:39:30;;;;;;;11.55;4.28;;;13.40;1.00;;;;;;5010860;28;20045;-65
2023/04/30 07:41:56;;;;;;;13.00;4.18;;;13.30;14.30;;;;;;5024883;28;20049;-65
2023/04/30 07:44:21;;;;;;;14.05;4.35;;;13.20;99.90;;;;;;5030985;28;20160;-64
2023/04/30 07:46:47;;;;;;;11.77;3.80;;;13.80;1.00;;;;;;5016157;28;20037;-64
2023/04/30 07:49:12;;;;;;;10.13;3.53;;;13.20;99.90;;;;;;5024848;28;20073;-63
2023/04/30 07:51:38;;;;;;;14.27;3.45;;;13.30;99.90;;;;;;5011926;28;20037;-64
2023/04/30 07:54:04;;;;;;;10.32;3.28;;;13.40;11.30;;;;;;5009682;28;20045;-64
2023/04/30 07:56:29;;;;;;;10.65;3.90;;;13.30;99.90;;;;;;5019309;28;20072;-64
2023/04/30 07:58:55;;;;;;;10.80;3.90;;;13.30;99.90;;;;;;5026620;28;20033;-64
2023/04/30 08:01:20;;;;;;;10.65;3.58;;;13.40;99.90;;;;;;5010192;28;20049;-64
2023/04/30 08:03:46;;;;;;;9.35;3.75;;;14.20;53.70;;;;;;5009563;28;20049;-65
2023/04/30 08:06:11;;;;;;;12.63;4.03;;;13.40;1.00;;;;;;5012954;28;20125;-64
2023/04/30 08:08:38;;;;;;;10.65;3.28;;;13.30;1.00;;;;;;5014249;28;20045;-67
2023/04/30 08:11:04;;;;;;;9.85;3.35;;;13.30;1.00;;;;;;5015859;28;20062;-65
2023/04/30 08:13:29;;;;;;;7.13;2.97;;;13.50;99.90;;;;;;5015249;28;20435;-66
2023/04/30 08:15:55;;;;;;;8.75;2.90;;;13.90;99.90;;;;;;5028781;28;20121;-66
2023/04/30 08:18:21;;;;;;;10.13;3.70;;;14.40;99.90;;;;;;5029493;28;20082;-66
2023/04/30 08:20:47;;;;;;;11.82;3.60;;;14.80;99.90;;;;;;5012531;28;20061;-64
2023/04/30 08:23:13;;;;;;;8.82;3.20;;;14.90;99.90;;;;;;5013355;28;20096;-64
2023/04/30 08:25:38;;;;;;;11.63;3.65;;;14.70;99.90;;;;;;5013751;28;20042;-64
2023/04/30 08:28:05;;;;;;;11.38;3.50;;;15.00;28.70;;;;;;5024244;28;20137;-64
2023/04/30 08:30:31;;;;;;;11.68;3.20;;;15.30;1.00;;;;;;5014551;28;20167;-64
2023/04/30 08:32:56;;;;;;;10.60;3.67;;;15.30;1.00;;;;;;5011717;28;20110;-70
2023/04/30 08:35:22;;;;;;;10.90;3.38;;;15.00;1.00;;;;;;5017936;28;20063;-62
2023/04/30 08:37:48;;;;;;;9.15;3.03;;;14.80;1.00;;;;;;5017749;28;20399;-62
2023/04/30 08:40:15;;;;;;;8.05;2.95;;;15.10;1.00;;;;;;5012168;28;20034;-62
2023/04/30 08:42:46;;;;;;;8.98;3.30;;;14.80;1.00;;;;;;5008317;28;20073;-64
2023/04/30 08:45:13;;;;;;;10.27;3.15;;;15.80;1.00;;;;;;5019919;28;20049;-65
2023/04/30 08:47:39;;;;;;;10.00;2.97;;;16.10;99.90;;;;;;5013543;28;20060;-65
2023/04/30 08:50:06;;;;;;;11.85;3.63;;;16.20;99.90;;;;;;5023701;28;20099;-65
2023/04/30 08:52:34;;;;;;;10.55;3.78;;;15.50;99.90;;;;;;5011057;28;20104;-65
2023/04/30 08:55:00;;;;;;;12.07;3.50;;;15.30;99.90;;;;;;5018470;28;20033;-64
2023/04/30 08:57:26;;;;;;;10.45;3.78;;;15.00;99.90;;;;;;5020767;28;20044;-64
2023/04/30 08:59:53;;;;;;;8.43;2.83;;;14.80;99.90;;;;;;5024823;28;20037;-64
2023/04/30 09:02:18;;;;;;;7.85;2.65;;;14.60;99.90;;;;;;5025021;28;20061;-65
2023/04/30 09:04:45;;;;;;;11.15;3.25;;;14.40;99.90;;;;;;5016203;28;20034;-65
2023/04/30 09:07:13;;;;;;;7.72;2.85;;;14.40;99.90;;;;;;5009220;28;20046;-65
2023/04/30 09:09:39;;;;;;;7.90;2.78;;;14.40;99.90;;;;;;5008522;28;20041;-65
2023/04/30 09:12:18;;;;;;;8.98;3.70;;;14.40;99.90;;;;;;5026229;28;20049;-65
2023/04/30 09:15:00;;;;;;;7.05;2.90;;;14.50;99.90;;;;;;5016925;28;20417;-65
2023/04/30 09:17:26;;;;;;;8.18;3.17;;;14.40;99.90;;;;;;5014715;28;20142;-69
2023/04/30 09:19:52;;;;;;;11.43;3.17;;;14.50;99.90;;;;;;5008694;28;20530;-62
2023/04/30 09:22:20;;;;;;;8.65;3.10;;;14.70;99.90;;;;;;5015766;28;20076;-64
2023/04/30 09:24:48;;;;;;;8.68;3.00;;;14.60;99.90;;;;;;5016393;28;20516;-64
2023/04/30 09:27:18;;;;;;;11.68;3.13;;;14.90;99.90;;;;;;5018711;28;20528;-63
2023/04/30 09:29:45;;;;;;;9.07;3.20;;;14.70;99.90;;;;;;5012815;28;20053;-64
2023/04/30 09:32:10;;;;;;;10.23;3.42;;;14.60;99.90;;;;;;5020135;28;20046;-63
2023/04/30 09:34:36;;;;;;;9.52;3.22;;;14.60;99.90;;;;;;5019838;28;20117;-64
2023/04/30 09:37:03;;;;;;;10.18;3.60;;;14.60;99.90;;;;;;5010063;28;20704;-64
2023/04/30 09:39:29;;;;;;;11.20;3.53;;;14.60;99.90;;;;;;5039030;28;20037;-64
2023/04/30 09:42:09;;;;;;;8.82;3.53;;;14.50;99.90;;;;;;5013566;28;21015;-63
2023/04/30 09:44:40;;;;;;;9.82;3.10;;;14.60;99.90;;;;;;5027578;28;20747;-64
2023/04/30 09:47:19;;;;;;;7.30;2.83;;;14.50;99.90;;;;;;5033141;28;20778;-64
2023/04/30 09:49:52;;;;;;;6.80;2.95;;;14.60;99.90;;;;;;5033400;28;20049;-64
2023/04/30 09:52:19;;;;;;;9.23;3.10;;;14.60;99.90;;;;;;5025372;28;20658;-64
2023/04/30 09:54:45;;;;;;;11.10;3.83;;;14.60;99.90;;;;;;5025010;28;20378;-63
2023/04/30 09:57:13;;;;;;;8.65;3.22;;;14.70;99.90;;;;;;5014537;28;20040;-64
2023/04/30 09:59:43;;;;;;;8.40;3.25;;;14.70;99.90;;;;;;5027209;28;20030;-63
2023/04/30 10:02:12;;;;;;;11.20;3.60;;;14.80;99.90;;;;;;5029182;28;20483;-64
2023/04/30 10:04:40;;;;;;;9.38;3.08;;;15.00;99.90;;;;;;5027939;28;20128;-64
2023/04/30 10:07:20;;;;;;;10.93;3.33;;;15.10;99.90;;;;;;5014813;28;20041;-64
2023/04/30 10:10:08;;;;;;;12.18;3.38;;;15.00;99.90;;;;;;5011731;28;20128;-64
2023/04/30 10:12:49;;;;;;;10.15;3.35;;;14.90;99.90;;;;;;5017538;28;20097;-64
2023/04/30 10:15:21;;;;;;;11.38;3.75;;;15.10;99.90;;;;;;5017524;28;20523;-63
2023/04/30 10:18:03;;;;;;;6.07;3.10;;;15.00;99.90;;;;;;5018276;28;20045;-65
2023/04/30 10:20:30;;;;;;;10.55;3.13;;;15.10;99.90;;;;;;5021476;28;20060;-64
2023/04/30 10:22:56;;;;;;;7.35;3.20;;;15.20;99.90;;;;;;5028432;28;20143;-64
2023/04/30 10:25:22;;;;;;;8.05;3.10;;;15.10;99.90;;;;;;5025064;28;20045;-64
2023/04/30 10:27:48;;;;;;;9.15;3.40;;;15.10;99.90;;;;;;5027199;28;20117;-62
2023/04/30 10:30:15;;;;;;;6.65;3.00;;;15.00;99.90;;;;;;5020154;28;20412;-73
2023/04/30 10:33:06;;;;;;;7.85;3.15;;;15.10;99.90;;;;;;5015639;28;20041;-64
2023/04/30 10:35:55;;;;;;;10.32;3.05;;;15.30;99.90;;;;;;4997708;28;20072;-64
2023/04/30 10:38:23;;;;;;;5.93;2.75;;;15.40;99.90;;;;;;5024077;28;20052;-65
2023/04/30 10:40:50;;;;;;;7.68;3.25;;;15.50;99.90;;;;;;5014308;28;20464;-65
2023/04/30 10:43:21;;;;;;;6.88;2.80;;;15.60;99.90;;;;;;5015756;28;20073;-65
2023/04/30 10:45:47;;;;;;;10.90;3.30;;;15.70;99.90;;;;;;5015844;28;20034;-65
2023/04/30 10:48:22;;;;;;;8.48;3.65;;;15.70;99.90;;;;;;5021724;28;20034;-65
2023/04/30 10:50:51;;;;;;;9.50;2.63;;;15.80;99.90;;;;;;5015420;28;20064;-65
2023/04/30 10:53:18;;;;;;;6.85;2.65;;;15.90;99.90;;;;;;5025595;28;20088;-65
2023/04/30 10:56:05;;;;;;;8.50;2.90;;;15.90;99.90;;;;;;5014747;28;20415;-64
2023/04/30 10:58:35;;;;;;;6.13;3.15;;;15.80;99.90;;;;;;5027610;28;20065;-65
2023/04/30 11:01:13;;;;;;;8.95;3.17;;;15.80;99.90;;;;;;5015473;28;20042;-65
2023/04/30 11:04:04;;;;;;;7.63;3.00;;;16.00;99.90;;;;;;5012729;28;20052;-64
2023/04/30 11:06:51;;;;;;;5.82;2.80;;;16.10;99.90;;;;;;5022662;28;20392;-64
2023/04/30 11:09:16;;;;;;;8.90;3.20;;;16.20;99.90;;;;;;5027200;28;20436;-64
2023/04/30 11:11:46;;;;;;;7.75;3.20;;;16.10;99.90;;;;;;5019190;28;20038;-64
2023/04/30 11:14:18;;;;;;;10.02;3.25;;;16.10;99.90;;;;;;5022646;28;20041;-64
2023/04/30 11:16:48;;;;;;;7.68;3.42;;;15.90;99.90;;;;;;5029325;28;20068;-64
2023/04/30 11:19:14;;;;;;;6.95;3.15;;;15.90;99.90;;;;;;5012021;28;20053;-64
2023/04/30 11:22:01;;;;;;;9.10;3.40;;;15.90;99.90;;;;;;5011960;28;20041;-65
2023/04/30 11:24:59;;;;;;;6.05;3.03;;;16.10;99.90;;;;;;5025169;28;20038;-64
2023/04/30 11:27:26;;;;;;;7.40;3.38;;;16.10;99.90;;;;;;5012163;28;20065;-64
2023/04/30 11:29:53;;;;;;;8.43;3.55;;;16.10;99.90;;;;;;5020400;28;20054;-64
2023/04/30 11:32:20;;;;;;;10.35;3.83;;;16.20;99.90;;;;;;5014840;28;20053;-64
2023/04/30 11:34:46;;;;;;;7.75;3.20;;;16.20;99.90;;;;;;5019018;28;20117;-64
2023/04/30 11:37:17;;;;;;;10.52;3.05;;;16.10;99.90;;;;;;5000086;28;20042;-64
2023/04/30 11:39:43;;;;;;;7.05;2.95;;;16.20;99.90;;;;;;5016406;28;20042;-65
2023/04/30 11:42:14;;;;;;;8.85;3.63;;;16.20;99.90;;;;;;5025112;28;20045;-64
2023/04/30 11:44:40;;;;;;;7.60;3.35;;;16.00;99.90;;;;;;5029858;28;20408;-64
2023/04/30 11:47:05;;;;;;;7.28;3.05;;;16.10;99.90;;;;;;5027184;28;20049;-64
2023/04/30 11:49:31;;;;;;;4.95;3.00;;;16.20;99.90;;;;;;5019560;28;20045;-67
2023/04/30 11:51:57;;;;;;;7.95;3.65;;;16.20;99.90;;;;;;5024225;28;20040;-67
2023/04/30 11:54:22;;;;;;;8.77;3.30;;;16.20;99.90;;;;;;5018120;28;20404;-67
2023/04/30 11:56:48;;;;;;;6.00;3.20;;;16.30;99.90;;;;;;5023033;28;20046;-66
2023/04/30 11:59:16;;;;;;;6.88;3.28;;;16.20;99.90;;;;;;5024347;28;20088;-66
2023/04/30 12:01:42;;;;;;;6.82;3.00;;;16.30;99.90;;;;;;5029198;28;20574;-66
2023/04/30 12:04:08;;;;;;;9.18;3.67;;;16.30;99.90;;;;;;5030876;28;20033;-66
2023/04/30 12:06:35;;;;;;;7.95;3.10;;;16.40;99.90;;;;;;5022344;28;20696;-67
2023/04/30 12:09:05;;;;;;;7.05;3.63;;;16.40;99.90;;;;;;5023372;28;20416;-67
2023/04/30 12:11:32;;;;;;;7.43;3.28;;;16.50;99.90;;;;;;5011102;28;20034;-67
2023/04/30 12:14:06;;;;;;;7.32;3.60;;;16.50;99.90;;;;;;5015151;28;20093;-67
2023/04/30 12:16:59;;;;;;;7.45;3.33;;;16.60;99.90;;;;;;5020876;28;20377;-66
2023/04/30 12:19:24;;;;;;;6.40;2.88;;;16.70;99.90;;;;;;5010469;28;20631;-67
2023/04/30 12:21:50;;;;;;;7.60;3.58;;;16.90;99.90;;;;;;5019652;28;20131;-66
2023/04/30 12:24:18;;;;;;;8.70;3.67;;;16.90;99.90;;;;;;5022716;28;20116;-67
2023/04/30 12:26:44;;;;;;;6.10;2.92;;;17.00;99.90;;;;;;5013215;28;20129;-67
2023/04/30 12:29:13;;;;;;;7.15;2.88;;;17.10;99.90;;;;;;5012778;28;20057;-67
2023/04/30 12:31:40;;;;;;;7.07;3.10;;;17.00;99.90;;;;;;5013631;28;20040;-67
2023/04/30 12:34:08;;;;;;;7.22;3.20;;;16.90;99.90;;;;;;5016617;28;20048;-67
2023/04/30 12:36:37;;;;;;;5.80;2.80;;;16.80;99.90;;;;;;5017610;28;20113;-67
2023/04/30 12:39:12;;;;;;;6.88;3.42;;;16.80;99.90;;;;;;5009970;28;20484;-67
2023/04/30 12:41:42;;;;;;;7.13;3.30;;;16.60;99.90;;;;;;5014877;28;20415;-67
2023/04/30 12:44:23;;;;;;;7.13;3.13;;;16.40;99.90;;;;;;5015565;28;20033;-67
2023/04/30 12:46:52;;;;;;;7.93;3.20;;;16.40;99.90;;;;;;5012519;28;20068;-67
2023/04/30 12:49:29;;;;;;;9.88;3.50;;;16.40;99.90;;;;;;5023506;28;20156;-67
2023/04/30 12:51:59;;;;;;;6.82;3.08;;;16.30;99.90;;;;;;5017604;28;20045;-67